sensor_id;sensor_type;location;lat;lon;timestamp;P1;durP1;ratioP1;P2;durP2;ratioP2
4186;SDS011;2107;52.306;10.484;2023-08-01T00:02:05;0.00;;;0.00;;
4186;SDS011;2107;52.306;10.484;2023-08-01T00:04:32;0.00;;;0.00;;
4186;SDS011;2107;52.306;10.484;2023-08-01T00:06:59;0.00;;;0.00;;
4186;SDS011;2107;52.306;10.484;2023-08-01T00:09:26;0.00;;;0.00;;
4186;SDS011;2107;52.306;10.484;2023-08-01T00:11:52;0.00;;;0.00;;
4186;SDS011;2107;52.306;10.484;2023-08-01T00:14:19;0.00;;;0.00;;
4186;SDS011;2107;52.306;10.484;2023-08-01T00:16:50;0.00;;;0.00;;
4186;SDS011;2107;52.306;10.484;2023-08-01T00:19:17;0.00;;;0.00;;
4186;SDS011;2107;52.306;10.484;2023-08-01T00:21:44;0.00;;;0.00;;
4186;SDS011;2107;52.306;10.484;2023-08-01T00:24:12;0.00;;;0.00;;
4186;SDS011;2107;52.306;10.484;2023-08-01T00:26:38;0.00;;;0.00;;
4186;SDS011;2107;52.306;10.484;2023-08-01T00:29:05;0.00;;;0.00;;
4186;SDS011;2107;52.306;10.484;2023-08-01T00:31:32;0.00;;;0.00;;
4186;SDS011;2107;52.306;10.484;2023-08-01T00:34:00;0.00;;;0.00;;
4186;SDS011;2107;52.306;10.484;2023-08-01T00:36:27;0.00;;;0.00;;
4186;SDS011;2107;52.306;10.484;2023-08-01T00:38:54;0.00;;;0.00;;
4186;SDS011;2107;52.306;10.484;2023-08-01T00:41:21;0.00;;;0.00;;
4186;SDS011;2107;52.306;10.484;2023-08-01T00:43:47;0.00;;;0.00;;
4186;SDS011;2107;52.306;10.484;2023-08-01T00:46:14;0.00;;;0.00;;
4186;SDS011;2107;52.306;10.484;2023-08-01T00:48:41;0.00;;;0.00;;
4186;SDS011;2107;52.306;10.484;2023-08-01T00:51:09;0.00;;;0.00;;
4186;SDS011;2107;52.306;10.484;2023-08-01T00:53:37;0.00;;;0.00;;
4186;SDS011;2107;52.306;10.484;2023-08-01T00:56:04;0.00;;;0.00;;
4186;SDS011;2107;52.306;10.484;2023-08-01T00:58:32;0.00;;;0.00;;
4186;SDS011;2107;52.306;10.484;2023-08-01T01:00:58;0.00;;;0.00;;
4186;SDS011;2107;52.306;10.484;2023-08-01T01:03:25;0.00;;;0.00;;
4186;SDS011;2107;52.306;10.484;2023-08-01T01:05:53;0.00;;;0.00;;
4186;SDS011;2107;52.306;10.484;2023-08-01T01:08:24;0.00;;;0.00;;
4186;SDS011;2107;52.306;10.484;2023-08-01T01:10:51;0.00;;;0.00;;
4186;SDS011;2107;52.306;10.484;2023-08-01T01:13:18;0.00;;;0.00;;
4186;SDS011;2107;52.306;10.484;2023-08-01T01:15:45;0.00;;;0.00;;
4186;SDS011;2107;52.306;10.484;2023-08-01T01:18:12;0.00;;;0.00;;
4186;SDS011;2107;52.306;10.484;2023-08-01T01:20:40;0.00;;;0.00;;
4186;SDS011;2107;52.306;10.484;2023-08-01T01:23:07;0.00;;;0.00;;
4186;SDS011;2107;52.306;10.484;2023-08-01T01:25:36;0.00;;;0.00;;
4186;SDS011;2107;52.306;10.484;2023-08-01T01:28:05;0.00;;;0.00;;
4186;SDS011;2107;52.306;10.484;2023-08-01T01:30:33;0.00;;;0.00;;
4186;SDS011;2107;52.306;10.484;2023-08-01T01:33:00;0.00;;;0.00;;
4186;SDS011;2107;52.306;10.484;2023-08-01T01:35:28;0.00;;;0.00;;
4186;SDS011;2107;52.306;10.484;2023-08-01T01:37:57;0.00;;;0.00;;
4186;SDS011;2107;52.306;10.484;2023-08-01T01:40:28;0.00;;;0.00;;
4186;SDS011;2107;52.306;10.484;2023-08-01T01:42:55;0.00;;;0.00;;
4186;SDS011;2107;52.306;10.484;2023-08-01T01:45:22;0.00;;;0.00;;
4186;SDS011;2107;52.306;10.484;2023-08-01T01:47:49;0.00;;;0.00;;
4186;SDS011;2107;52.306;10.484;2023-08-01T01:50:16;0.00;;;0.00;;
4186;SDS011;2107;52.306;10.484;2023-08-01T01:52:43;0.00;;;0.00;;
4186;SDS011;2107;52.306;10.484;2023-08-01T01:55:11;0.00;;;0.00;;
4186;SDS011;2107;52.306;10.484;2023-08-01T01:57:39;0.00;;;0.00;;
4186;SDS011;2107;52.306;10.484;2023-08-01T02:00:06;0.00;;;0.00;;
4186;SDS011;2107;52.306;10.484;2023-08-01T02:02:35;0.00;;;0.00;;
4186;SDS011;2107;52.306;10.484;2023-08-01T02:05:02;0.00;;;0.00;;
4186;SDS011;2107;52.306;10.484;2023-08-01T02:07:29;0.00;;;0.00;;
4186;SDS011;2107;52.306;10.484;2023-08-01T02:09:58;0.00;;;0.00;;
4186;SDS011;2107;52.306;10.484;2023-08-01T02:12:26;0.00;;;0.00;;
4186;SDS011;2107;52.306;10.484;2023-08-01T02:14:56;0.00;;;0.00;;
4186;SDS011;2107;52.306;10.484;2023-08-01T02:17:23;0.00;;;0.00;;
4186;SDS011;2107;52.306;10.484;2023-08-01T02:19:50;0.00;;;0.00;;
4186;SDS011;2107;52.306;10.484;2023-08-01T02:22:17;0.00;;;0.00;;
4186;SDS011;2107;52.306;10.484;2023-08-01T02:24:44;0.00;;;0.00;;
4186;SDS011;2107;52.306;10.484;2023-08-01T02:27:10;0.00;;;0.00;;
4186;SDS011;2107;52.306;10.484;2023-08-01T02:29:38;0.00;;;0.00;;
4186;SDS011;2107;52.306;10.484;2023-08-01T02:32:06;0.00;;;0.00;;
4186;SDS011;2107;52.306;10.484;2023-08-01T02:34:33;0.00;;;0.00;;
4186;SDS011;2107;52.306;10.484;2023-08-01T02:37:00;0.00;;;0.00;;
4186;SDS011;2107;52.306;10.484;2023-08-01T02:39:26;0.00;;;0.00;;
4186;SDS011;2107;52.306;10.484;2023-08-01T02:41:53;0.00;;;0.00;;
4186;SDS011;2107;52.306;10.484;2023-08-01T02:44:20;0.00;;;0.00;;
4186;SDS011;2107;52.306;10.484;2023-08-01T02:46:48;0.00;;;0.00;;
4186;SDS011;2107;52.306;10.484;2023-08-01T02:49:15;0.00;;;0.00;;
4186;SDS011;2107;52.306;10.484;2023-08-01T02:51:42;0.00;;;0.00;;
4186;SDS011;2107;52.306;10.484;2023-08-01T02:54:09;0.00;;;0.00;;
4186;SDS011;2107;52.306;10.484;2023-08-01T02:56:35;0.00;;;0.00;;
4186;SDS011;2107;52.306;10.484;2023-08-01T02:59:06;0.00;;;0.00;;
4186;SDS011;2107;52.306;10.484;2023-08-01T03:01:33;0.00;;;0.00;;
4186;SDS011;2107;52.306;10.484;2023-08-01T03:04:01;0.00;;;0.00;;
4186;SDS011;2107;52.306;10.484;2023-08-01T03:06:28;0.00;;;0.00;;
4186;SDS011;2107;52.306;10.484;2023-08-01T03:08:55;0.00;;;0.00;;
4186;SDS011;2107;52.306;10.484;2023-08-01T03:11:22;0.00;;;0.00;;
4186;SDS011;2107;52.306;10.484;2023-08-01T03:13:49;0.00;;;0.00;;
4186;SDS011;2107;52.306;10.484;2023-08-01T03:16:15;0.00;;;0.00;;
4186;SDS011;2107;52.306;10.484;2023-08-01T03:18:43;0.00;;;0.00;;
4186;SDS011;2107;52.306;10.484;2023-08-01T03:21:11;0.00;;;0.00;;
4186;SDS011;2107;52.306;10.484;2023-08-01T03:23:38;0.00;;;0.00;;
4186;SDS011;2107;52.306;10.484;2023-08-01T03:26:06;0.00;;;0.00;;
4186;SDS011;2107;52.306;10.484;2023-08-01T03:28:32;0.00;;;0.00;;
4186;SDS011;2107;52.306;10.484;2023-08-01T03:30:59;0.00;;;0.00;;
4186;SDS011;2107;52.306;10.484;2023-08-01T03:33:26;0.00;;;0.00;;
4186;SDS011;2107;52.306;10.484;2023-08-01T03:35:53;0.00;;;0.00;;
4186;SDS011;2107;52.306;10.484;2023-08-01T03:38:21;0.00;;;0.00;;
4186;SDS011;2107;52.306;10.484;2023-08-01T03:40:48;0.00;;;0.00;;
4186;SDS011;2107;52.306;10.484;2023-08-01T03:43:15;0.00;;;0.00;;
4186;SDS011;2107;52.306;10.484;2023-08-01T03:45:42;0.00;;;0.00;;
4186;SDS011;2107;52.306;10.484;2023-08-01T03:48:09;0.00;;;0.00;;
4186;SDS011;2107;52.306;10.484;2023-08-01T03:50:36;0.00;;;0.00;;
4186;SDS011;2107;52.306;10.484;2023-08-01T03:53:03;0.00;;;0.00;;
4186;SDS011;2107;52.306;10.484;2023-08-01T03:55:31;0.00;;;0.00;;
4186;SDS011;2107;52.306;10.484;2023-08-01T03:57:58;0.00;;;0.00;;
4186;SDS011;2107;52.306;10.484;2023-08-01T04:00:25;0.00;;;0.00;;
4186;SDS011;2107;52.306;10.484;2023-08-01T04:02:57;0.00;;;0.00;;
4186;SDS011;2107;52.306;10.484;2023-08-01T04:05:24;0.00;;;0.00;;
4186;SDS011;2107;52.306;10.484;2023-08-01T04:07:51;0.00;;;0.00;;
4186;SDS011;2107;52.306;10.484;2023-08-01T04:10:19;0.00;;;0.00;;
4186;SDS011;2107;52.306;10.484;2023-08-01T04:12:48;0.00;;;0.00;;
4186;SDS011;2107;52.306;10.484;2023-08-01T04:15:15;0.00;;;0.00;;
4186;SDS011;2107;52.306;10.484;2023-08-01T04:17:42;0.00;;;0.00;;
4186;SDS011;2107;52.306;10.484;2023-08-01T04:20:09;0.00;;;0.00;;
4186;SDS011;2107;52.306;10.484;2023-08-01T04:22:36;0.00;;;0.00;;
4186;SDS011;2107;52.306;10.484;2023-08-01T04:25:03;0.00;;;0.00;;
4186;SDS011;2107;52.306;10.484;2023-08-01T04:27:30;0.00;;;0.00;;
4186;SDS011;2107;52.306;10.484;2023-08-01T04:29:58;0.00;;;0.00;;
4186;SDS011;2107;52.306;10.484;2023-08-01T04:32:25;0.00;;;0.00;;
4186;SDS011;2107;52.306;10.484;2023-08-01T04:34:52;0.00;;;0.00;;
4186;SDS011;2107;52.306;10.484;2023-08-01T04:37:19;0.00;;;0.00;;
4186;SDS011;2107;52.306;10.484;2023-08-01T04:39:48;0.00;;;0.00;;
4186;SDS011;2107;52.306;10.484;2023-08-01T04:42:14;0.00;;;0.00;;
4186;SDS011;2107;52.306;10.484;2023-08-01T04:44:41;0.00;;;0.00;;
4186;SDS011;2107;52.306;10.484;2023-08-01T04:47:10;0.00;;;0.00;;
4186;SDS011;2107;52.306;10.484;2023-08-01T04:49:37;0.00;;;0.00;;
4186;SDS011;2107;52.306;10.484;2023-08-01T04:52:04;0.00;;;0.00;;
4186;SDS011;2107;52.306;10.484;2023-08-01T04:54:31;0.00;;;0.00;;
4186;SDS011;2107;52.306;10.484;2023-08-01T04:56:58;0.00;;;0.00;;
4186;SDS011;2107;52.306;10.484;2023-08-01T04:59:25;0.00;;;0.00;;
4186;SDS011;2107;52.306;10.484;2023-08-01T05:01:52;0.00;;;0.00;;
4186;SDS011;2107;52.306;10.484;2023-08-01T05:04:20;0.00;;;0.00;;
4186;SDS011;2107;52.306;10.484;2023-08-01T05:06:47;0.00;;;0.00;;
4186;SDS011;2107;52.306;10.484;2023-08-01T05:09:14;0.00;;;0.00;;
4186;SDS011;2107;52.306;10.484;2023-08-01T05:11:41;0.00;;;0.00;;
4186;SDS011;2107;52.306;10.484;2023-08-01T05:14:07;0.00;;;0.00;;
4186;SDS011;2107;52.306;10.484;2023-08-01T05:16:34;0.00;;;0.00;;
4186;SDS011;2107;52.306;10.484;2023-08-01T05:19:01;0.00;;;0.00;;
4186;SDS011;2107;52.306;10.484;2023-08-01T05:21:29;0.00;;;0.00;;
4186;SDS011;2107;52.306;10.484;2023-08-01T05:23:56;0.00;;;0.00;;
4186;SDS011;2107;52.306;10.484;2023-08-01T05:26:23;0.00;;;0.00;;
4186;SDS011;2107;52.306;10.484;2023-08-01T05:28:50;0.00;;;0.00;;
4186;SDS011;2107;52.306;10.484;2023-08-01T05:31:17;0.00;;;0.00;;
4186;SDS011;2107;52.306;10.484;2023-08-01T05:33:44;0.00;;;0.00;;
4186;SDS011;2107;52.306;10.484;2023-08-01T05:36:11;0.00;;;0.00;;
4186;SDS011;2107;52.306;10.484;2023-08-01T05:38:39;0.00;;;0.00;;
4186;SDS011;2107;52.306;10.484;2023-08-01T05:41:06;0.00;;;0.00;;
4186;SDS011;2107;52.306;10.484;2023-08-01T05:43:33;0.00;;;0.00;;
4186;SDS011;2107;52.306;10.484;2023-08-01T05:45:59;0.00;;;0.00;;
4186;SDS011;2107;52.306;10.484;2023-08-01T05:48:26;0.00;;;0.00;;
4186;SDS011;2107;52.306;10.484;2023-08-01T05:50:53;0.00;;;0.00;;
4186;SDS011;2107;52.306;10.484;2023-08-01T05:53:20;0.00;;;0.00;;
4186;SDS011;2107;52.306;10.484;2023-08-01T05:55:49;0.00;;;0.00;;
4186;SDS011;2107;52.306;10.484;2023-08-01T05:58:16;0.00;;;0.00;;
4186;SDS011;2107;52.306;10.484;2023-08-01T06:00:43;0.00;;;0.00;;
4186;SDS011;2107;52.306;10.484;2023-08-01T06:03:09;0.00;;;0.00;;
4186;SDS011;2107;52.306;10.484;2023-08-01T06:05:37;0.00;;;0.00;;
4186;SDS011;2107;52.306;10.484;2023-08-01T06:08:05;0.00;;;0.00;;
4186;SDS011;2107;52.306;10.484;2023-08-01T06:10:32;0.00;;;0.00;;
4186;SDS011;2107;52.306;10.484;2023-08-01T06:13:01;0.00;;;0.00;;
4186;SDS011;2107;52.306;10.484;2023-08-01T06:15:28;0.00;;;0.00;;
4186;SDS011;2107;52.306;10.484;2023-08-01T06:17:55;0.00;;;0.00;;
4186;SDS011;2107;52.306;10.484;2023-08-01T06:20:22;0.00;;;0.00;;
4186;SDS011;2107;52.306;10.484;2023-08-01T06:22:48;0.00;;;0.00;;
4186;SDS011;2107;52.306;10.484;2023-08-01T06:25:15;0.00;;;0.00;;
4186;SDS011;2107;52.306;10.484;2023-08-01T06:27:42;0.00;;;0.00;;
4186;SDS011;2107;52.306;10.484;2023-08-01T06:30:11;0.00;;;0.00;;
4186;SDS011;2107;52.306;10.484;2023-08-01T06:32:38;0.00;;;0.00;;
4186;SDS011;2107;52.306;10.484;2023-08-01T06:35:05;0.00;;;0.00;;
4186;SDS011;2107;52.306;10.484;2023-08-01T06:37:32;0.00;;;0.00;;
4186;SDS011;2107;52.306;10.484;2023-08-01T06:39:59;0.00;;;0.00;;
4186;SDS011;2107;52.306;10.484;2023-08-01T06:42:27;0.00;;;0.00;;
4186;SDS011;2107;52.306;10.484;2023-08-01T06:44:54;0.00;;;0.00;;
4186;SDS011;2107;52.306;10.484;2023-08-01T06:47:22;0.00;;;0.00;;
4186;SDS011;2107;52.306;10.484;2023-08-01T06:49:49;0.00;;;0.00;;
4186;SDS011;2107;52.306;10.484;2023-08-01T06:52:16;0.00;;;0.00;;
4186;SDS011;2107;52.306;10.484;2023-08-01T06:54:43;0.00;;;0.00;;
4186;SDS011;2107;52.306;10.484;2023-08-01T06:57:10;0.00;;;0.00;;
4186;SDS011;2107;52.306;10.484;2023-08-01T06:59:37;0.00;;;0.00;;
4186;SDS011;2107;52.306;10.484;2023-08-01T07:02:04;0.00;;;0.00;;
4186;SDS011;2107;52.306;10.484;2023-08-01T07:04:33;0.00;;;0.00;;
4186;SDS011;2107;52.306;10.484;2023-08-01T07:07:00;0.00;;;0.00;;
4186;SDS011;2107;52.306;10.484;2023-08-01T07:09:27;0.00;;;0.00;;
4186;SDS011;2107;52.306;10.484;2023-08-01T07:11:54;0.00;;;0.00;;
4186;SDS011;2107;52.306;10.484;2023-08-01T07:14:21;0.00;;;0.00;;
4186;SDS011;2107;52.306;10.484;2023-08-01T07:16:47;0.00;;;0.00;;
4186;SDS011;2107;52.306;10.484;2023-08-01T07:19:15;0.00;;;0.00;;
4186;SDS011;2107;52.306;10.484;2023-08-01T07:21:43;0.00;;;0.00;;
4186;SDS011;2107;52.306;10.484;2023-08-01T07:24:13;0.00;;;0.00;;
4186;SDS011;2107;52.306;10.484;2023-08-01T07:26:40;0.00;;;0.00;;
4186;SDS011;2107;52.306;10.484;2023-08-01T07:29:06;0.00;;;0.00;;
4186;SDS011;2107;52.306;10.484;2023-08-01T07:31:35;0.00;;;0.00;;
4186;SDS011;2107;52.306;10.484;2023-08-01T07:34:03;0.00;;;0.00;;
4186;SDS011;2107;52.306;10.484;2023-08-01T07:36:29;0.10;;;0.10;;
4186;SDS011;2107;52.306;10.484;2023-08-01T07:38:58;0.10;;;0.10;;
4186;SDS011;2107;52.306;10.484;2023-08-01T07:41:24;0.10;;;0.10;;
4186;SDS011;2107;52.306;10.484;2023-08-01T07:43:51;0.10;;;0.10;;
4186;SDS011;2107;52.306;10.484;2023-08-01T07:46:18;0.10;;;0.10;;
4186;SDS011;2107;52.306;10.484;2023-08-01T07:48:45;0.10;;;0.10;;
4186;SDS011;2107;52.306;10.484;2023-08-01T07:51:14;0.10;;;0.10;;
4186;SDS011;2107;52.306;10.484;2023-08-01T07:53:41;0.10;;;0.10;;
4186;SDS011;2107;52.306;10.484;2023-08-01T07:56:09;0.10;;;0.10;;
4186;SDS011;2107;52.306;10.484;2023-08-01T07:58:36;0.10;;;0.10;;
4186;SDS011;2107;52.306;10.484;2023-08-01T08:01:03;0.10;;;0.10;;
4186;SDS011;2107;52.306;10.484;2023-08-01T08:03:30;0.10;;;0.10;;
4186;SDS011;2107;52.306;10.484;2023-08-01T08:05:57;0.10;;;0.10;;
4186;SDS011;2107;52.306;10.484;2023-08-01T08:08:25;0.10;;;0.10;;
4186;SDS011;2107;52.306;10.484;2023-08-01T08:10:52;0.10;;;0.10;;
4186;SDS011;2107;52.306;10.484;2023-08-01T08:13:19;0.10;;;0.10;;
4186;SDS011;2107;52.306;10.484;2023-08-01T08:15:46;0.10;;;0.10;;
4186;SDS011;2107;52.306;10.484;2023-08-01T08:18:13;0.10;;;0.10;;
4186;SDS011;2107;52.306;10.484;2023-08-01T08:20:40;0.20;;;0.20;;
4186;SDS011;2107;52.306;10.484;2023-08-01T08:23:08;0.20;;;0.20;;
4186;SDS011;2107;52.306;10.484;2023-08-01T08:25:35;0.30;;;0.30;;
4186;SDS011;2107;52.306;10.484;2023-08-01T08:28:02;0.30;;;0.30;;
4186;SDS011;2107;52.306;10.484;2023-08-01T08:30:31;0.70;;;0.70;;
4186;SDS011;2107;52.306;10.484;2023-08-01T08:32:58;1.00;;;1.00;;
4186;SDS011;2107;52.306;10.484;2023-08-01T08:35:29;1.00;;;1.00;;
4186;SDS011;2107;52.306;10.484;2023-08-01T08:37:57;1.10;;;1.10;;
4186;SDS011;2107;52.306;10.484;2023-08-01T08:40:24;1.00;;;1.00;;
4186;SDS011;2107;52.306;10.484;2023-08-01T08:42:52;1.03;;;1.03;;
4186;SDS011;2107;52.306;10.484;2023-08-01T08:45:19;1.10;;;1.10;;
4186;SDS011;2107;52.306;10.484;2023-08-01T08:47:48;1.30;;;1.30;;
4186;SDS011;2107;52.306;10.484;2023-08-01T08:50:21;1.20;;;1.20;;
4186;SDS011;2107;52.306;10.484;2023-08-01T08:52:48;1.33;;;1.33;;
4186;SDS011;2107;52.306;10.484;2023-08-01T08:55:15;1.30;;;1.30;;
4186;SDS011;2107;52.306;10.484;2023-08-01T08:57:46;1.40;;;1.40;;
4186;SDS011;2107;52.306;10.484;2023-08-01T09:00:16;1.40;;;1.40;;
4186;SDS011;2107;52.306;10.484;2023-08-01T09:02:44;1.43;;;1.43;;
4186;SDS011;2107;52.306;10.484;2023-08-01T09:05:12;1.40;;;1.40;;
4186;SDS011;2107;52.306;10.484;2023-08-01T09:07:41;1.50;;;1.50;;
4186;SDS011;2107;52.306;10.484;2023-08-01T09:10:09;1.40;;;1.40;;
4186;SDS011;2107;52.306;10.484;2023-08-01T09:12:36;1.30;;;1.30;;
4186;SDS011;2107;52.306;10.484;2023-08-01T09:15:03;1.10;;;1.10;;
4186;SDS011;2107;52.306;10.484;2023-08-01T09:17:30;1.00;;;1.00;;
4186;SDS011;2107;52.306;10.484;2023-08-01T09:20:03;1.00;;;1.00;;
4186;SDS011;2107;52.306;10.484;2023-08-01T09:22:32;0.60;;;0.60;;
4186;SDS011;2107;52.306;10.484;2023-08-01T09:25:08;0.70;;;0.70;;
4186;SDS011;2107;52.306;10.484;2023-08-01T09:27:34;0.80;;;0.80;;
4186;SDS011;2107;52.306;10.484;2023-08-01T09:30:05;0.80;;;0.80;;
4186;SDS011;2107;52.306;10.484;2023-08-01T09:32:33;0.90;;;0.90;;
4186;SDS011;2107;52.306;10.484;2023-08-01T09:35:00;0.80;;;0.80;;
4186;SDS011;2107;52.306;10.484;2023-08-01T09:37:38;0.80;;;0.80;;
4186;SDS011;2107;52.306;10.484;2023-08-01T09:40:06;0.80;;;0.80;;
4186;SDS011;2107;52.306;10.484;2023-08-01T09:42:37;0.90;;;0.90;;
4186;SDS011;2107;52.306;10.484;2023-08-01T09:45:06;0.60;;;0.60;;
4186;SDS011;2107;52.306;10.484;2023-08-01T09:47:37;0.60;;;0.60;;
4186;SDS011;2107;52.306;10.484;2023-08-01T09:50:04;0.60;;;0.60;;
4186;SDS011;2107;52.306;10.484;2023-08-01T09:52:32;0.80;;;0.80;;
4186;SDS011;2107;52.306;10.484;2023-08-01T09:55:01;0.83;;;0.83;;
4186;SDS011;2107;52.306;10.484;2023-08-01T09:57:28;0.80;;;0.80;;
4186;SDS011;2107;52.306;10.484;2023-08-01T09:59:56;1.10;;;1.10;;
4186;SDS011;2107;52.306;10.484;2023-08-01T10:02:25;0.80;;;0.80;;
4186;SDS011;2107;52.306;10.484;2023-08-01T10:04:53;0.80;;;0.80;;
4186;SDS011;2107;52.306;10.484;2023-08-01T10:07:23;0.70;;;0.70;;
4186;SDS011;2107;52.306;10.484;2023-08-01T10:09:53;0.80;;;0.80;;
4186;SDS011;2107;52.306;10.484;2023-08-01T10:12:23;0.80;;;0.80;;
4186;SDS011;2107;52.306;10.484;2023-08-01T10:14:52;0.90;;;0.90;;
4186;SDS011;2107;52.306;10.484;2023-08-01T10:17:19;0.60;;;0.60;;
4186;SDS011;2107;52.306;10.484;2023-08-01T10:19:48;0.70;;;0.70;;
4186;SDS011;2107;52.306;10.484;2023-08-01T10:22:16;0.60;;;0.60;;
4186;SDS011;2107;52.306;10.484;2023-08-01T10:24:44;0.83;;;0.83;;
4186;SDS011;2107;52.306;10.484;2023-08-01T10:27:12;0.60;;;0.60;;
4186;SDS011;2107;52.306;10.484;2023-08-01T10:29:41;0.80;;;0.80;;
4186;SDS011;2107;52.306;10.484;2023-08-01T10:32:08;0.57;;;0.57;;
4186;SDS011;2107;52.306;10.484;2023-08-01T10:34:35;0.60;;;0.60;;
4186;SDS011;2107;52.306;10.484;2023-08-01T10:37:03;0.70;;;0.70;;
4186;SDS011;2107;52.306;10.484;2023-08-01T10:39:30;0.60;;;0.60;;
4186;SDS011;2107;52.306;10.484;2023-08-01T10:41:57;0.70;;;0.70;;
4186;SDS011;2107;52.306;10.484;2023-08-01T10:44:25;0.80;;;0.80;;
4186;SDS011;2107;52.306;10.484;2023-08-01T10:46:54;0.70;;;0.70;;
4186;SDS011;2107;52.306;10.484;2023-08-01T10:49:33;0.63;;;0.63;;
4186;SDS011;2107;52.306;10.484;2023-08-01T10:52:01;0.53;;;0.53;;
4186;SDS011;2107;52.306;10.484;2023-08-01T10:54:29;0.70;;;0.70;;
4186;SDS011;2107;52.306;10.484;2023-08-01T10:56:57;0.50;;;0.50;;
4186;SDS011;2107;52.306;10.484;2023-08-01T10:59:24;0.40;;;0.40;;
4186;SDS011;2107;52.306;10.484;2023-08-01T11:01:52;0.60;;;0.60;;
4186;SDS011;2107;52.306;10.484;2023-08-01T11:04:24;0.50;;;0.50;;
4186;SDS011;2107;52.306;10.484;2023-08-01T11:06:51;0.67;;;0.67;;
4186;SDS011;2107;52.306;10.484;2023-08-01T11:09:21;0.60;;;0.60;;
4186;SDS011;2107;52.306;10.484;2023-08-01T11:11:51;0.70;;;0.70;;
4186;SDS011;2107;52.306;10.484;2023-08-01T11:14:19;0.60;;;0.60;;
4186;SDS011;2107;52.306;10.484;2023-08-01T11:16:47;0.70;;;0.70;;
4186;SDS011;2107;52.306;10.484;2023-08-01T11:19:20;0.77;;;0.77;;
4186;SDS011;2107;52.306;10.484;2023-08-01T11:21:47;1.00;;;1.00;;
4186;SDS011;2107;52.306;10.484;2023-08-01T11:24:15;0.90;;;0.90;;
4186;SDS011;2107;52.306;10.484;2023-08-01T11:26:43;0.80;;;0.80;;
4186;SDS011;2107;52.306;10.484;2023-08-01T11:29:10;0.70;;;0.70;;
4186;SDS011;2107;52.306;10.484;2023-08-01T11:31:38;0.70;;;0.70;;
4186;SDS011;2107;52.306;10.484;2023-08-01T11:34:06;0.80;;;0.80;;
4186;SDS011;2107;52.306;10.484;2023-08-01T11:36:36;1.00;;;1.00;;
4186;SDS011;2107;52.306;10.484;2023-08-01T11:39:03;0.90;;;0.90;;
4186;SDS011;2107;52.306;10.484;2023-08-01T11:41:30;1.00;;;1.00;;
4186;SDS011;2107;52.306;10.484;2023-08-01T11:44:01;0.80;;;0.80;;
4186;SDS011;2107;52.306;10.484;2023-08-01T11:46:33;0.70;;;0.70;;
4186;SDS011;2107;52.306;10.484;2023-08-01T11:49:01;0.70;;;0.70;;
4186;SDS011;2107;52.306;10.484;2023-08-01T11:51:28;1.00;;;1.00;;
4186;SDS011;2107;52.306;10.484;2023-08-01T11:54:01;0.60;;;0.60;;
4186;SDS011;2107;52.306;10.484;2023-08-01T11:56:28;0.60;;;0.60;;
4186;SDS011;2107;52.306;10.484;2023-08-01T11:58:55;0.60;;;0.60;;
4186;SDS011;2107;52.306;10.484;2023-08-01T12:01:23;0.50;;;0.50;;
4186;SDS011;2107;52.306;10.484;2023-08-01T12:03:51;0.80;;;0.80;;
4186;SDS011;2107;52.306;10.484;2023-08-01T12:06:19;1.10;;;1.10;;
4186;SDS011;2107;52.306;10.484;2023-08-01T12:08:48;1.20;;;1.20;;
4186;SDS011;2107;52.306;10.484;2023-08-01T12:11:21;1.00;;;1.00;;
4186;SDS011;2107;52.306;10.484;2023-08-01T12:13:59;1.00;;;1.00;;
4186;SDS011;2107;52.306;10.484;2023-08-01T12:16:27;1.30;;;1.30;;
4186;SDS011;2107;52.306;10.484;2023-08-01T12:18:54;1.30;;;1.30;;
4186;SDS011;2107;52.306;10.484;2023-08-01T12:21:21;1.53;;;1.53;;
4186;SDS011;2107;52.306;10.484;2023-08-01T12:23:48;1.43;;;1.43;;
4186;SDS011;2107;52.306;10.484;2023-08-01T12:26:15;1.90;;;1.90;;
4186;SDS011;2107;52.306;10.484;2023-08-01T12:28:43;1.00;;;1.00;;
4186;SDS011;2107;52.306;10.484;2023-08-01T12:31:10;1.10;;;1.10;;
4186;SDS011;2107;52.306;10.484;2023-08-01T12:33:37;1.03;;;1.03;;
4186;SDS011;2107;52.306;10.484;2023-08-01T12:36:04;1.10;;;1.10;;
4186;SDS011;2107;52.306;10.484;2023-08-01T12:38:31;1.20;;;1.20;;
4186;SDS011;2107;52.306;10.484;2023-08-01T12:40:58;1.10;;;1.10;;
4186;SDS011;2107;52.306;10.484;2023-08-01T12:43:25;1.20;;;1.20;;
4186;SDS011;2107;52.306;10.484;2023-08-01T12:45:54;1.30;;;1.30;;
4186;SDS011;2107;52.306;10.484;2023-08-01T12:48:23;1.30;;;1.30;;
4186;SDS011;2107;52.306;10.484;2023-08-01T12:50:50;1.00;;;1.00;;
4186;SDS011;2107;52.306;10.484;2023-08-01T12:53:16;1.07;;;1.07;;
4186;SDS011;2107;52.306;10.484;2023-08-01T12:55:43;0.83;;;0.83;;
4186;SDS011;2107;52.306;10.484;2023-08-01T12:58:11;0.80;;;0.80;;
4186;SDS011;2107;52.306;10.484;2023-08-01T13:00:38;1.00;;;1.00;;
4186;SDS011;2107;52.306;10.484;2023-08-01T13:03:07;1.00;;;1.00;;
4186;SDS011;2107;52.306;10.484;2023-08-01T13:05:34;1.03;;;1.03;;
4186;SDS011;2107;52.306;10.484;2023-08-01T13:08:01;1.10;;;1.10;;
4186;SDS011;2107;52.306;10.484;2023-08-01T13:10:29;0.90;;;0.90;;
4186;SDS011;2107;52.306;10.484;2023-08-01T13:12:56;0.70;;;0.70;;
4186;SDS011;2107;52.306;10.484;2023-08-01T13:15:23;1.10;;;1.10;;
4186;SDS011;2107;52.306;10.484;2023-08-01T13:17:50;0.80;;;0.80;;
4186;SDS011;2107;52.306;10.484;2023-08-01T13:20:18;0.70;;;0.70;;
4186;SDS011;2107;52.306;10.484;2023-08-01T13:22:46;1.20;;;1.20;;
4186;SDS011;2107;52.306;10.484;2023-08-01T13:25:14;1.00;;;1.00;;
4186;SDS011;2107;52.306;10.484;2023-08-01T13:27:42;0.97;;;0.97;;
4186;SDS011;2107;52.306;10.484;2023-08-01T13:30:09;1.00;;;1.00;;
4186;SDS011;2107;52.306;10.484;2023-08-01T13:32:39;1.20;;;1.20;;
4186;SDS011;2107;52.306;10.484;2023-08-01T13:35:07;5.23;;;5.23;;
4186;SDS011;2107;52.306;10.484;2023-08-01T13:37:35;3.83;;;3.83;;
4186;SDS011;2107;52.306;10.484;2023-08-01T13:40:02;2.30;;;2.30;;
4186;SDS011;2107;52.306;10.484;2023-08-01T13:42:30;0.90;;;0.90;;
4186;SDS011;2107;52.306;10.484;2023-08-01T13:44:59;1.30;;;1.30;;
4186;SDS011;2107;52.306;10.484;2023-08-01T13:47:26;2.10;;;2.10;;
4186;SDS011;2107;52.306;10.484;2023-08-01T13:49:52;2.20;;;2.20;;
4186;SDS011;2107;52.306;10.484;2023-08-01T13:52:19;2.57;;;2.57;;
4186;SDS011;2107;52.306;10.484;2023-08-01T13:54:47;2.80;;;2.80;;
4186;SDS011;2107;52.306;10.484;2023-08-01T13:57:14;2.50;;;2.50;;
4186;SDS011;2107;52.306;10.484;2023-08-01T13:59:41;2.10;;;2.10;;
4186;SDS011;2107;52.306;10.484;2023-08-01T14:02:08;1.90;;;1.90;;
4186;SDS011;2107;52.306;10.484;2023-08-01T14:04:35;1.90;;;1.90;;
4186;SDS011;2107;52.306;10.484;2023-08-01T14:07:02;1.90;;;1.90;;
4186;SDS011;2107;52.306;10.484;2023-08-01T14:09:29;1.63;;;1.63;;
4186;SDS011;2107;52.306;10.484;2023-08-01T14:11:58;1.83;;;1.83;;
4186;SDS011;2107;52.306;10.484;2023-08-01T14:14:27;1.40;;;1.40;;
4186;SDS011;2107;52.306;10.484;2023-08-01T14:16:54;1.43;;;1.43;;
4186;SDS011;2107;52.306;10.484;2023-08-01T14:19:21;1.20;;;1.20;;
4186;SDS011;2107;52.306;10.484;2023-08-01T14:21:48;1.10;;;1.10;;
4186;SDS011;2107;52.306;10.484;2023-08-01T14:24:15;0.90;;;0.90;;
4186;SDS011;2107;52.306;10.484;2023-08-01T14:26:41;1.00;;;1.00;;
4186;SDS011;2107;52.306;10.484;2023-08-01T14:29:10;1.00;;;1.00;;
4186;SDS011;2107;52.306;10.484;2023-08-01T14:31:36;1.30;;;1.30;;
4186;SDS011;2107;52.306;10.484;2023-08-01T14:34:03;1.20;;;1.20;;
4186;SDS011;2107;52.306;10.484;2023-08-01T14:36:30;1.00;;;1.00;;
4186;SDS011;2107;52.306;10.484;2023-08-01T14:38:58;0.80;;;0.80;;
4186;SDS011;2107;52.306;10.484;2023-08-01T14:41:26;0.87;;;0.87;;
4186;SDS011;2107;52.306;10.484;2023-08-01T14:43:55;0.80;;;0.80;;
4186;SDS011;2107;52.306;10.484;2023-08-01T14:46:24;1.10;;;1.10;;
4186;SDS011;2107;52.306;10.484;2023-08-01T14:48:51;1.10;;;1.10;;
4186;SDS011;2107;52.306;10.484;2023-08-01T14:51:17;1.10;;;1.10;;
4186;SDS011;2107;52.306;10.484;2023-08-01T14:53:44;0.80;;;0.80;;
4186;SDS011;2107;52.306;10.484;2023-08-01T14:56:11;1.00;;;1.00;;
4186;SDS011;2107;52.306;10.484;2023-08-01T14:58:38;1.10;;;1.10;;
4186;SDS011;2107;52.306;10.484;2023-08-01T15:01:11;1.10;;;1.10;;
4186;SDS011;2107;52.306;10.484;2023-08-01T15:03:39;0.90;;;0.90;;